createdAt,value
2017-12-17T00:07:48.314Z,85.0
2017-12-17T00:18:02.416Z,84.8
2017-12-17T00:28:15.583Z,84.8
2017-12-17T00:38:29.127Z,84.8
2017-12-17T00:48:43.572Z,85.1
2017-12-17T00:58:57.197Z,85.1
2017-12-17T01:09:10.858Z,85.1
2017-12-17T01:19:25.374Z,85.2
2017-12-17T01:29:38.705Z,85.1
2017-12-17T01:39:52.379Z,84.9
2017-12-17T01:50:06.527Z,84.9
2017-12-17T02:00:20.745Z,84.7
2017-12-17T02:10:34.096Z,84.6
2017-12-17T02:20:48.420Z,84.5
2017-12-17T02:31:02.580Z,84.3
2017-12-17T02:41:48.092Z,84.2
2017-12-17T02:52:01.354Z,84.3
2017-12-17T03:02:14.974Z,84.3
2017-12-17T03:12:29.014Z,84.2
2017-12-17T03:22:43.485Z,84.2
2017-12-17T03:32:54.687Z,84.3
2017-12-17T03:43:09.047Z,84.4
2017-12-17T03:53:23.185Z,84.5
2017-12-17T04:03:37.650Z,84.4
2017-12-17T04:13:51.654Z,84.5
2017-12-17T04:24:05.710Z,84.2
2017-12-17T04:34:18.952Z,84.1
2017-12-17T04:44:32.464Z,84.0
2017-12-17T04:54:46.591Z,84.1
2017-12-17T05:05:00.540Z,84.1
2017-12-17T05:15:14.166Z,84.0
2017-12-17T05:25:28.612Z,84.0
2017-12-17T05:35:42.466Z,83.9
2017-12-17T05:45:55.782Z,83.8
2017-12-17T05:56:09.831Z,83.8
2017-12-17T06:06:21.505Z,83.9
2017-12-17T06:16:35.615Z,84.0
2017-12-17T06:26:49.689Z,84.4
2017-12-17T06:37:04.156Z,84.4
2017-12-17T06:47:18.034Z,84.1
2017-12-17T06:57:32.316Z,84.2
2017-12-17T07:07:43.684Z,84.1
2017-12-17T07:17:57.952Z,83.9
2017-12-17T07:28:12.199Z,84.0
2017-12-17T07:38:26.466Z,83.8
2017-12-17T07:48:40.632Z,83.8
2017-12-17T07:58:54.890Z,84.0
2017-12-17T08:09:09.243Z,84.1
2017-12-17T08:19:23.537Z,84.1
2017-12-17T08:29:37.303Z,84.1
2017-12-17T08:40:22.296Z,84.2
2017-12-17T08:51:08.435Z,84.3
2017-12-17T09:01:23.208Z,84.4
2017-12-17T09:11:37.956Z,84.7
2017-12-17T09:21:52.489Z,85.0
2017-12-17T09:32:07.302Z,85.1
2017-12-17T09:42:22.640Z,85.2
2017-12-17T09:52:36.899Z,85.4
2017-12-17T10:02:51.684Z,86.1
2017-12-17T10:13:05.809Z,86.6
2017-12-17T10:23:21.425Z,86.6
2017-12-17T10:33:35.292Z,86.4
2017-12-17T10:43:49.652Z,86.4
2017-12-17T10:54:06.756Z,86.3
2017-12-17T11:04:20.901Z,86.3
2017-12-17T11:14:35.329Z,86.3
2017-12-17T11:25:20.688Z,86.4
2017-12-17T11:35:34.349Z,86.6
2017-12-17T11:45:48.491Z,86.9
2017-12-17T11:56:03.133Z,87.5
2017-12-17T12:06:16.807Z,88.8
2017-12-17T12:16:29.972Z,88.5
2017-12-17T12:26:43.302Z,88.6
2017-12-17T12:36:56.695Z,87.3
2017-12-17T12:47:10.678Z,86.7
2017-12-17T12:57:24.951Z,86.7
2017-12-17T13:07:39.097Z,87.9
2017-12-17T13:17:53.764Z,88.4
2017-12-17T13:28:39.899Z,88.5
2017-12-17T13:38:52.147Z,88.4
2017-12-17T13:49:06.794Z,88.5
2017-12-17T13:59:21.088Z,88.8
2017-12-17T14:09:34.857Z,88.0
2017-12-17T14:19:49.284Z,87.2
2017-12-17T14:30:03.081Z,86.2
2017-12-17T14:40:17.436Z,85.6
2017-12-17T14:50:31.472Z,84.9
2017-12-17T15:00:46.029Z,84.7
2017-12-17T15:11:00.248Z,84.7
2017-12-17T15:21:14.356Z,84.5
2017-12-17T15:31:28.312Z,84.7
2017-12-17T15:42:17.084Z,84.7
2017-12-17T15:52:31.433Z,84.6
2017-12-17T16:02:45.402Z,84.8
2017-12-17T16:12:59.557Z,84.9
2017-12-17T16:23:12.820Z,85.0
2017-12-17T16:33:26.276Z,85.3
2017-12-17T16:43:40.261Z,85.2
2017-12-17T16:53:54.127Z,85.3
2017-12-17T17:04:08.116Z,85.3
2017-12-17T17:14:22.151Z,85.3
2017-12-17T17:24:35.734Z,85.4
2017-12-17T17:34:50.027Z,85.6
2017-12-17T17:45:04.310Z,85.7
2017-12-17T17:55:18.406Z,85.8
2017-12-17T18:05:31.700Z,85.8
2017-12-17T18:15:46.336Z,86.2
2017-12-17T18:26:00.304Z,86.2
2017-12-17T18:36:14.457Z,85.8
2017-12-17T18:46:28.981Z,86.2
2017-12-17T18:56:43.231Z,86.1
2017-12-17T19:06:57.288Z,86.2
2017-12-17T19:17:42.226Z,86.4
2017-12-17T19:27:56.416Z,86.1
2017-12-17T19:38:58.177Z,86.5
2017-12-17T19:49:20.834Z,86.5
2017-12-17T19:59:42.372Z,86.5
2017-12-17T20:10:06.809Z,86.7
2017-12-17T20:20:59.671Z,86.6
2017-12-17T20:31:52.213Z,86.5
2017-12-17T20:42:12.786Z,86.6
2017-12-17T20:53:02.930Z,86.5
2017-12-17T21:04:30.264Z,86.5
2017-12-17T21:15:49.411Z,86.6
2017-12-17T21:27:12.977Z,86.4
2017-12-17T21:37:26.543Z,86.3
2017-12-17T21:47:37.930Z,86.3
2017-12-17T21:57:49.129Z,86.3
2017-12-17T22:08:03.268Z,86.4
2017-12-17T22:18:17.372Z,86.4
2017-12-17T22:28:51.213Z,86.6
2017-12-17T22:39:04.680Z,86.5
2017-12-17T22:49:18.309Z,86.3
2017-12-17T22:59:32.573Z,86.0
2017-12-17T23:09:46.504Z,85.8
2017-12-17T23:19:59.795Z,85.7
2017-12-17T23:30:14.127Z,85.5
2017-12-17T23:40:28.228Z,85.3
2017-12-17T23:50:41.743Z,85.1
